createdAt,value
2023-03-23T16:00:30.055Z,38.15
2023-03-23T16:05:33.309Z,38.07
2023-03-23T16:10:36.094Z,38.17
2023-03-23T16:15:37.631Z,38.25
2023-03-23T16:20:39.074Z,38.85
2023-03-23T16:25:40.906Z,39.21
2023-03-23T16:30:44.690Z,39.38
2023-03-23T16:35:46.403Z,39.48
2023-03-23T16:40:48.438Z,38.62
2023-03-23T16:45:50.088Z,39.38
2023-03-23T16:50:52.593Z,38.82
2023-03-23T16:55:54.165Z,39.04
2023-03-23T17:01:01.139Z,39.83
2023-03-23T17:06:02.990Z,39.59
2023-03-23T17:11:04.639Z,39.55
2023-03-23T17:16:06.724Z,39.73
2023-03-23T17:21:08.271Z,40.18
2023-03-23T17:26:09.782Z,40.50
2023-03-23T17:31:11.269Z,41.04
2023-03-23T17:36:12.820Z,41.06
2023-03-23T17:41:14.339Z,41.06
2023-03-23T17:46:15.952Z,41.54
2023-03-23T17:51:17.584Z,43.81
2023-03-23T17:56:19.097Z,44.94
2023-03-23T18:01:20.674Z,46.93
2023-03-23T18:06:22.211Z,44.76
2023-03-23T18:11:23.686Z,45.51
2023-03-23T18:16:26.291Z,46.27
2023-03-23T18:21:27.831Z,45.55
2023-03-23T18:26:30.562Z,44.54
2023-03-23T18:31:32.079Z,43.97
2023-03-23T18:36:34.198Z,43.17
2023-03-23T18:41:35.694Z,43.20
2023-03-23T18:46:37.279Z,44.35
2023-03-23T18:51:38.878Z,45.84
2023-03-23T18:56:40.440Z,46.77
2023-03-23T19:01:41.995Z,46.68
2023-03-23T19:06:43.550Z,48.08
2023-03-23T19:11:46.205Z,48.83
2023-03-23T19:16:48.051Z,48.78
2023-03-23T19:21:49.583Z,48.79
2023-03-23T19:26:51.094Z,48.85
2023-03-23T19:31:54.292Z,48.51
2023-03-23T19:37:04.096Z,49.13
2023-03-23T19:42:08.214Z,49.45
2023-03-23T19:47:10.501Z,48.98
2023-03-23T19:52:13.586Z,49.10
2023-03-23T19:57:16.673Z,49.63
2023-03-23T20:02:18.340Z,49.19
2023-03-23T20:07:21.341Z,49.15
2023-03-23T20:12:22.970Z,48.65
2023-03-23T20:17:25.538Z,48.10
2023-03-23T20:22:27.028Z,48.94
2023-03-23T20:27:28.719Z,49.64
2023-03-23T20:32:31.458Z,50.19
2023-03-23T20:37:33.705Z,50.96
2023-03-23T20:42:35.553Z,50.52
2023-03-23T20:47:38.202Z,50.58
2023-03-23T20:52:39.752Z,50.88
2023-03-23T20:57:41.279Z,51.59
2023-03-23T21:02:42.829Z,51.27
2023-03-23T21:07:44.410Z,51.38
2023-03-23T21:12:45.914Z,51.60
2023-03-23T21:17:47.462Z,52.33
2023-03-23T21:22:49.598Z,52.21
2023-03-23T21:27:51.774Z,52.93
2023-03-23T21:32:53.897Z,52.98
2023-03-23T21:37:55.396Z,53.10
2023-03-23T21:42:57.185Z,52.80
2023-03-23T21:47:58.748Z,51.87
2023-03-23T21:53:00.350Z,51.12
2023-03-23T21:58:02.092Z,51.46
2023-03-23T22:03:03.974Z,52.09
2023-03-23T22:08:05.514Z,52.02
2023-03-23T22:13:07.470Z,51.98
2023-03-23T22:18:09.028Z,52.53
2023-03-23T22:23:11.205Z,52.37
2023-03-23T22:28:12.756Z,52.59
2023-03-23T22:33:14.376Z,53.11
2023-03-23T22:38:16.322Z,52.93
2023-03-23T22:43:17.827Z,52.47
2023-03-23T22:48:20.787Z,52.33
2023-03-23T22:53:22.481Z,52.01
2023-03-23T22:58:26.020Z,51.64
2023-03-23T23:03:28.543Z,52.67
2023-03-23T23:08:30.261Z,52.92
2023-03-23T23:13:33.220Z,53.41
2023-03-23T23:18:35.839Z,53.08
2023-03-23T23:23:37.545Z,52.74
2023-03-23T23:28:38.982Z,52.41
2023-03-23T23:33:40.599Z,51.83
2023-03-23T23:38:42.108Z,53.73
2023-03-23T23:43:43.589Z,54.26
2023-03-23T23:48:45.096Z,52.24
2023-03-23T23:53:47.027Z,53.76
2023-03-23T23:58:48.490Z,53.84
